sensor_id;sensor_type;location;lat;lon;timestamp;P1;durP1;ratioP1;P2;durP2;ratioP2
18899;SDS011;9582;52.018;6.306;2023-07-20T00:02:17;4.60;;;4.15;;
18899;SDS011;9582;52.018;6.306;2023-07-20T00:04:43;6.25;;;4.57;;
18899;SDS011;9582;52.018;6.306;2023-07-20T00:07:10;5.30;;;4.75;;
18899;SDS011;9582;52.018;6.306;2023-07-20T00:09:36;8.65;;;5.60;;
18899;SDS011;9582;52.018;6.306;2023-07-20T00:12:04;8.93;;;5.63;;
18899;SDS011;9582;52.018;6.306;2023-07-20T00:14:31;7.68;;;5.85;;
18899;SDS011;9582;52.018;6.306;2023-07-20T00:16:58;9.20;;;6.70;;
18899;SDS011;9582;52.018;6.306;2023-07-20T00:19:25;7.80;;;6.00;;
18899;SDS011;9582;52.018;6.306;2023-07-20T00:21:52;6.72;;;6.00;;
18899;SDS011;9582;52.018;6.306;2023-07-20T00:24:19;7.32;;;6.30;;
18899;SDS011;9582;52.018;6.306;2023-07-20T00:26:46;7.57;;;6.50;;
18899;SDS011;9582;52.018;6.306;2023-07-20T00:29:15;7.85;;;6.55;;
18899;SDS011;9582;52.018;6.306;2023-07-20T00:31:41;8.70;;;6.22;;
18899;SDS011;9582;52.018;6.306;2023-07-20T00:34:08;7.63;;;6.68;;
18899;SDS011;9582;52.018;6.306;2023-07-20T00:36:35;8.25;;;6.57;;
18899;SDS011;9582;52.018;6.306;2023-07-20T00:39:01;6.95;;;6.25;;
18899;SDS011;9582;52.018;6.306;2023-07-20T00:41:28;8.77;;;6.22;;
18899;SDS011;9582;52.018;6.306;2023-07-20T00:43:55;7.55;;;6.35;;
18899;SDS011;9582;52.018;6.306;2023-07-20T00:46:23;6.97;;;6.18;;
18899;SDS011;9582;52.018;6.306;2023-07-20T00:48:51;7.28;;;6.53;;
18899;SDS011;9582;52.018;6.306;2023-07-20T00:51:18;10.63;;;6.53;;
18899;SDS011;9582;52.018;6.306;2023-07-20T00:53:45;7.82;;;6.28;;
18899;SDS011;9582;52.018;6.306;2023-07-20T00:56:14;10.00;;;6.93;;
18899;SDS011;9582;52.018;6.306;2023-07-20T00:58:41;8.27;;;6.63;;
18899;SDS011;9582;52.018;6.306;2023-07-20T01:01:07;10.52;;;6.97;;
18899;SDS011;9582;52.018;6.306;2023-07-20T01:03:35;8.35;;;6.88;;
18899;SDS011;9582;52.018;6.306;2023-07-20T01:06:04;8.07;;;6.53;;
18899;SDS011;9582;52.018;6.306;2023-07-20T01:08:40;7.75;;;6.80;;
18899;SDS011;9582;52.018;6.306;2023-07-20T01:11:12;8.32;;;7.50;;
18899;SDS011;9582;52.018;6.306;2023-07-20T01:13:43;8.43;;;6.63;;
18899;SDS011;9582;52.018;6.306;2023-07-20T01:16:10;7.20;;;6.15;;
18899;SDS011;9582;52.018;6.306;2023-07-20T01:18:38;7.43;;;6.50;;
18899;SDS011;9582;52.018;6.306;2023-07-20T01:21:06;6.85;;;5.70;;
18899;SDS011;9582;52.018;6.306;2023-07-20T01:23:41;6.53;;;5.90;;
18899;SDS011;9582;52.018;6.306;2023-07-20T01:26:32;6.57;;;5.68;;
18899;SDS011;9582;52.018;6.306;2023-07-20T01:29:17;6.00;;;5.40;;
18899;SDS011;9582;52.018;6.306;2023-07-20T01:31:57;6.05;;;5.47;;
18899;SDS011;9582;52.018;6.306;2023-07-20T01:34:25;6.57;;;5.05;;
18899;SDS011;9582;52.018;6.306;2023-07-20T01:36:52;6.00;;;5.28;;
18899;SDS011;9582;52.018;6.306;2023-07-20T01:39:21;5.53;;;4.82;;
18899;SDS011;9582;52.018;6.306;2023-07-20T01:41:47;5.70;;;5.13;;
18899;SDS011;9582;52.018;6.306;2023-07-20T01:44:14;5.85;;;5.25;;
18899;SDS011;9582;52.018;6.306;2023-07-20T01:46:41;5.53;;;5.05;;
18899;SDS011;9582;52.018;6.306;2023-07-20T01:49:08;6.28;;;5.78;;
18899;SDS011;9582;52.018;6.306;2023-07-20T01:51:35;5.82;;;5.22;;
18899;SDS011;9582;52.018;6.306;2023-07-20T01:54:02;4.60;;;4.20;;
18899;SDS011;9582;52.018;6.306;2023-07-20T01:56:28;3.95;;;3.65;;
18899;SDS011;9582;52.018;6.306;2023-07-20T01:58:55;4.50;;;3.55;;
18899;SDS011;9582;52.018;6.306;2023-07-20T02:01:21;4.30;;;3.90;;
18899;SDS011;9582;52.018;6.306;2023-07-20T02:03:49;6.00;;;4.45;;
18899;SDS011;9582;52.018;6.306;2023-07-20T02:06:17;4.18;;;3.78;;
18899;SDS011;9582;52.018;6.306;2023-07-20T02:08:43;5.18;;;4.18;;
18899;SDS011;9582;52.018;6.306;2023-07-20T02:11:10;4.72;;;3.67;;
18899;SDS011;9582;52.018;6.306;2023-07-20T02:13:36;4.28;;;3.97;;
18899;SDS011;9582;52.018;6.306;2023-07-20T02:16:03;4.57;;;4.18;;
18899;SDS011;9582;52.018;6.306;2023-07-20T02:18:30;4.13;;;3.75;;
18899;SDS011;9582;52.018;6.306;2023-07-20T02:20:56;4.68;;;4.28;;
18899;SDS011;9582;52.018;6.306;2023-07-20T02:23:25;4.72;;;4.20;;
18899;SDS011;9582;52.018;6.306;2023-07-20T02:25:52;4.85;;;4.32;;
18899;SDS011;9582;52.018;6.306;2023-07-20T02:28:18;5.22;;;4.40;;
18899;SDS011;9582;52.018;6.306;2023-07-20T02:30:45;5.18;;;4.68;;
18899;SDS011;9582;52.018;6.306;2023-07-20T02:33:11;5.40;;;4.90;;
18899;SDS011;9582;52.018;6.306;2023-07-20T02:35:38;5.20;;;4.70;;
18899;SDS011;9582;52.018;6.306;2023-07-20T02:38:04;4.63;;;4.22;;
18899;SDS011;9582;52.018;6.306;2023-07-20T02:40:33;5.63;;;5.07;;
18899;SDS011;9582;52.018;6.306;2023-07-20T02:42:59;5.15;;;4.65;;
18899;SDS011;9582;52.018;6.306;2023-07-20T02:45:26;5.65;;;5.15;;
18899;SDS011;9582;52.018;6.306;2023-07-20T02:47:52;5.60;;;5.10;;
18899;SDS011;9582;52.018;6.306;2023-07-20T02:50:19;5.32;;;4.82;;
18899;SDS011;9582;52.018;6.306;2023-07-20T02:52:45;5.43;;;4.93;;
18899;SDS011;9582;52.018;6.306;2023-07-20T02:55:12;7.68;;;5.40;;
18899;SDS011;9582;52.018;6.306;2023-07-20T02:57:40;5.82;;;5.10;;
18899;SDS011;9582;52.018;6.306;2023-07-20T03:00:07;5.22;;;4.75;;
18899;SDS011;9582;52.018;6.306;2023-07-20T03:02:34;6.25;;;4.60;;
18899;SDS011;9582;52.018;6.306;2023-07-20T03:05:00;5.22;;;4.70;;
18899;SDS011;9582;52.018;6.306;2023-07-20T03:07:30;5.47;;;4.97;;
18899;SDS011;9582;52.018;6.306;2023-07-20T03:09:57;5.70;;;4.72;;
18899;SDS011;9582;52.018;6.306;2023-07-20T03:12:23;5.50;;;5.00;;
18899;SDS011;9582;52.018;6.306;2023-07-20T03:14:51;5.28;;;4.85;;
18899;SDS011;9582;52.018;6.306;2023-07-20T03:17:19;5.90;;;5.40;;
18899;SDS011;9582;52.018;6.306;2023-07-20T03:19:46;5.47;;;4.97;;
18899;SDS011;9582;52.018;6.306;2023-07-20T03:22:12;5.65;;;4.85;;
18899;SDS011;9582;52.018;6.306;2023-07-20T03:24:39;5.07;;;4.68;;
18899;SDS011;9582;52.018;6.306;2023-07-20T03:27:06;4.95;;;4.55;;
18899;SDS011;9582;52.018;6.306;2023-07-20T03:29:32;4.88;;;4.47;;
18899;SDS011;9582;52.018;6.306;2023-07-20T03:32:00;5.20;;;4.65;;
18899;SDS011;9582;52.018;6.306;2023-07-20T03:34:28;5.43;;;4.93;;
18899;SDS011;9582;52.018;6.306;2023-07-20T03:36:54;5.07;;;4.68;;
18899;SDS011;9582;52.018;6.306;2023-07-20T03:39:21;4.63;;;4.22;;
18899;SDS011;9582;52.018;6.306;2023-07-20T03:41:48;5.00;;;4.47;;
18899;SDS011;9582;52.018;6.306;2023-07-20T03:44:15;5.53;;;4.97;;
18899;SDS011;9582;52.018;6.306;2023-07-20T03:46:42;6.18;;;4.97;;
18899;SDS011;9582;52.018;6.306;2023-07-20T03:49:10;5.28;;;4.78;;
18899;SDS011;9582;52.018;6.306;2023-07-20T03:51:37;5.65;;;4.97;;
18899;SDS011;9582;52.018;6.306;2023-07-20T03:54:03;5.18;;;4.70;;
18899;SDS011;9582;52.018;6.306;2023-07-20T03:56:30;5.82;;;5.32;;
18899;SDS011;9582;52.018;6.306;2023-07-20T03:58:59;5.53;;;4.97;;
18899;SDS011;9582;52.018;6.306;2023-07-20T04:01:26;5.20;;;4.75;;
18899;SDS011;9582;52.018;6.306;2023-07-20T04:03:52;4.82;;;4.38;;
18899;SDS011;9582;52.018;6.306;2023-07-20T04:06:20;4.50;;;4.10;;
18899;SDS011;9582;52.018;6.306;2023-07-20T04:08:46;5.03;;;4.50;;
18899;SDS011;9582;52.018;6.306;2023-07-20T04:11:13;5.82;;;4.78;;
18899;SDS011;9582;52.018;6.306;2023-07-20T04:13:40;4.72;;;4.32;;
18899;SDS011;9582;52.018;6.306;2023-07-20T04:16:07;5.10;;;4.70;;
18899;SDS011;9582;52.018;6.306;2023-07-20T04:18:33;5.35;;;4.70;;
18899;SDS011;9582;52.018;6.306;2023-07-20T04:21:00;7.03;;;4.53;;
18899;SDS011;9582;52.018;6.306;2023-07-20T04:23:28;5.35;;;4.85;;
18899;SDS011;9582;52.018;6.306;2023-07-20T04:25:54;7.28;;;5.35;;
18899;SDS011;9582;52.018;6.306;2023-07-20T04:28:21;6.78;;;5.05;;
18899;SDS011;9582;52.018;6.306;2023-07-20T04:30:48;7.40;;;4.97;;
18899;SDS011;9582;52.018;6.306;2023-07-20T04:33:15;6.63;;;5.47;;
18899;SDS011;9582;52.018;6.306;2023-07-20T04:35:47;5.30;;;4.82;;
18899;SDS011;9582;52.018;6.306;2023-07-20T04:38:18;5.03;;;4.53;;
18899;SDS011;9582;52.018;6.306;2023-07-20T04:40:49;5.57;;;5.05;;
18899;SDS011;9582;52.018;6.306;2023-07-20T04:43:16;6.38;;;5.40;;
18899;SDS011;9582;52.018;6.306;2023-07-20T04:45:44;5.75;;;5.20;;
18899;SDS011;9582;52.018;6.306;2023-07-20T04:48:11;5.78;;;5.25;;
18899;SDS011;9582;52.018;6.306;2023-07-20T04:50:45;5.88;;;5.38;;
18899;SDS011;9582;52.018;6.306;2023-07-20T04:53:12;5.40;;;5.00;;
18899;SDS011;9582;52.018;6.306;2023-07-20T04:55:39;6.20;;;5.50;;
18899;SDS011;9582;52.018;6.306;2023-07-20T04:58:08;5.30;;;4.80;;
18899;SDS011;9582;52.018;6.306;2023-07-20T05:00:37;5.82;;;5.28;;
18899;SDS011;9582;52.018;6.306;2023-07-20T05:03:05;5.70;;;5.20;;
18899;SDS011;9582;52.018;6.306;2023-07-20T05:05:32;6.00;;;5.22;;
18899;SDS011;9582;52.018;6.306;2023-07-20T05:07:59;5.38;;;4.88;;
18899;SDS011;9582;52.018;6.306;2023-07-20T05:10:25;4.88;;;4.40;;
18899;SDS011;9582;52.018;6.306;2023-07-20T05:12:52;5.10;;;4.57;;
18899;SDS011;9582;52.018;6.306;2023-07-20T05:15:20;5.47;;;4.97;;
18899;SDS011;9582;52.018;6.306;2023-07-20T05:17:46;7.07;;;5.00;;
18899;SDS011;9582;52.018;6.306;2023-07-20T05:20:13;5.07;;;4.35;;
18899;SDS011;9582;52.018;6.306;2023-07-20T05:22:40;5.05;;;4.65;;
18899;SDS011;9582;52.018;6.306;2023-07-20T05:25:07;4.45;;;4.15;;
18899;SDS011;9582;52.018;6.306;2023-07-20T05:27:35;5.70;;;4.38;;
18899;SDS011;9582;52.018;6.306;2023-07-20T05:30:03;5.22;;;4.50;;
18899;SDS011;9582;52.018;6.306;2023-07-20T05:32:32;4.65;;;4.25;;
18899;SDS011;9582;52.018;6.306;2023-07-20T05:34:59;4.20;;;3.90;;
18899;SDS011;9582;52.018;6.306;2023-07-20T05:37:25;5.05;;;4.38;;
18899;SDS011;9582;52.018;6.306;2023-07-20T05:39:52;4.68;;;4.18;;
18899;SDS011;9582;52.018;6.306;2023-07-20T05:42:18;4.60;;;4.20;;
18899;SDS011;9582;52.018;6.306;2023-07-20T05:44:45;4.90;;;3.80;;
18899;SDS011;9582;52.018;6.306;2023-07-20T05:47:12;4.10;;;3.70;;
18899;SDS011;9582;52.018;6.306;2023-07-20T05:49:40;3.72;;;3.30;;
18899;SDS011;9582;52.018;6.306;2023-07-20T05:52:06;5.32;;;3.30;;
18899;SDS011;9582;52.018;6.306;2023-07-20T05:54:33;6.28;;;3.50;;
18899;SDS011;9582;52.018;6.306;2023-07-20T05:57:00;5.43;;;2.90;;
18899;SDS011;9582;52.018;6.306;2023-07-20T05:59:26;2.80;;;2.60;;
18899;SDS011;9582;52.018;6.306;2023-07-20T06:01:54;4.28;;;2.78;;
18899;SDS011;9582;52.018;6.306;2023-07-20T06:04:21;2.90;;;2.55;;
18899;SDS011;9582;52.018;6.306;2023-07-20T06:06:49;2.88;;;2.20;;
18899;SDS011;9582;52.018;6.306;2023-07-20T06:09:21;2.72;;;2.53;;
18899;SDS011;9582;52.018;6.306;2023-07-20T06:11:47;2.80;;;2.60;;
18899;SDS011;9582;52.018;6.306;2023-07-20T06:14:14;3.15;;;2.63;;
18899;SDS011;9582;52.018;6.306;2023-07-20T06:16:41;2.92;;;2.20;;
18899;SDS011;9582;52.018;6.306;2023-07-20T06:19:07;2.88;;;2.60;;
18899;SDS011;9582;52.018;6.306;2023-07-20T06:21:36;2.88;;;2.33;;
18899;SDS011;9582;52.018;6.306;2023-07-20T06:24:04;2.58;;;2.17;;
18899;SDS011;9582;52.018;6.306;2023-07-20T06:26:31;2.75;;;1.58;;
18899;SDS011;9582;52.018;6.306;2023-07-20T06:29:03;3.13;;;2.38;;
18899;SDS011;9582;52.018;6.306;2023-07-20T06:31:29;2.25;;;1.60;;
18899;SDS011;9582;52.018;6.306;2023-07-20T06:33:56;2.13;;;1.90;;
18899;SDS011;9582;52.018;6.306;2023-07-20T06:36:22;2.00;;;1.90;;
18899;SDS011;9582;52.018;6.306;2023-07-20T06:38:51;2.20;;;1.80;;
18899;SDS011;9582;52.018;6.306;2023-07-20T06:41:18;4.25;;;1.60;;
18899;SDS011;9582;52.018;6.306;2023-07-20T06:43:45;1.58;;;1.40;;
18899;SDS011;9582;52.018;6.306;2023-07-20T06:46:13;2.47;;;1.63;;
18899;SDS011;9582;52.018;6.306;2023-07-20T06:48:39;2.05;;;1.20;;
18899;SDS011;9582;52.018;6.306;2023-07-20T06:51:06;2.67;;;1.35;;
18899;SDS011;9582;52.018;6.306;2023-07-20T06:53:32;2.58;;;1.30;;
18899;SDS011;9582;52.018;6.306;2023-07-20T06:55:59;2.67;;;1.45;;
18899;SDS011;9582;52.018;6.306;2023-07-20T06:58:27;1.92;;;1.20;;
18899;SDS011;9582;52.018;6.306;2023-07-20T07:00:53;1.95;;;1.35;;
18899;SDS011;9582;52.018;6.306;2023-07-20T07:03:20;1.52;;;1.30;;
18899;SDS011;9582;52.018;6.306;2023-07-20T07:05:46;2.13;;;1.23;;
18899;SDS011;9582;52.018;6.306;2023-07-20T07:08:13;1.40;;;1.20;;
18899;SDS011;9582;52.018;6.306;2023-07-20T07:10:40;2.25;;;1.20;;
18899;SDS011;9582;52.018;6.306;2023-07-20T07:13:06;2.45;;;1.20;;
18899;SDS011;9582;52.018;6.306;2023-07-20T07:15:34;1.95;;;1.27;;
18899;SDS011;9582;52.018;6.306;2023-07-20T07:18:01;2.08;;;1.30;;
18899;SDS011;9582;52.018;6.306;2023-07-20T07:20:28;3.67;;;1.33;;
18899;SDS011;9582;52.018;6.306;2023-07-20T07:22:55;1.30;;;1.20;;
18899;SDS011;9582;52.018;6.306;2023-07-20T07:25:22;1.83;;;1.00;;
18899;SDS011;9582;52.018;6.306;2023-07-20T07:27:48;1.33;;;1.15;;
18899;SDS011;9582;52.018;6.306;2023-07-20T07:30:15;3.10;;;1.15;;
18899;SDS011;9582;52.018;6.306;2023-07-20T07:32:43;2.03;;;1.10;;
18899;SDS011;9582;52.018;6.306;2023-07-20T07:35:10;1.13;;;0.65;;
18899;SDS011;9582;52.018;6.306;2023-07-20T07:37:36;1.65;;;1.00;;
18899;SDS011;9582;52.018;6.306;2023-07-20T07:40:04;1.88;;;0.75;;
18899;SDS011;9582;52.018;6.306;2023-07-20T07:42:31;2.45;;;1.10;;
18899;SDS011;9582;52.018;6.306;2023-07-20T07:44:58;2.33;;;1.00;;
18899;SDS011;9582;52.018;6.306;2023-07-20T07:47:24;1.65;;;0.50;;
18899;SDS011;9582;52.018;6.306;2023-07-20T07:49:52;0.88;;;0.80;;
18899;SDS011;9582;52.018;6.306;2023-07-20T07:52:19;2.08;;;0.60;;
18899;SDS011;9582;52.018;6.306;2023-07-20T07:54:46;1.05;;;0.80;;
18899;SDS011;9582;52.018;6.306;2023-07-20T07:57:13;2.85;;;1.00;;
18899;SDS011;9582;52.018;6.306;2023-07-20T07:59:39;0.85;;;0.85;;
18899;SDS011;9582;52.018;6.306;2023-07-20T08:02:06;1.10;;;0.80;;
18899;SDS011;9582;52.018;6.306;2023-07-20T08:04:32;1.85;;;0.60;;
18899;SDS011;9582;52.018;6.306;2023-07-20T08:07:01;0.80;;;0.80;;
18899;SDS011;9582;52.018;6.306;2023-07-20T08:09:29;1.65;;;0.90;;
18899;SDS011;9582;52.018;6.306;2023-07-20T08:11:56;1.13;;;0.90;;
18899;SDS011;9582;52.018;6.306;2023-07-20T08:14:22;1.55;;;1.10;;
18899;SDS011;9582;52.018;6.306;2023-07-20T08:16:49;2.05;;;1.08;;
18899;SDS011;9582;52.018;6.306;2023-07-20T08:19:15;1.73;;;0.82;;
18899;SDS011;9582;52.018;6.306;2023-07-20T08:21:42;1.13;;;1.02;;
18899;SDS011;9582;52.018;6.306;2023-07-20T08:24:09;1.08;;;0.98;;
18899;SDS011;9582;52.018;6.306;2023-07-20T08:26:36;1.33;;;1.00;;
18899;SDS011;9582;52.018;6.306;2023-07-20T08:29:02;1.10;;;1.00;;
18899;SDS011;9582;52.018;6.306;2023-07-20T08:31:29;1.00;;;0.93;;
18899;SDS011;9582;52.018;6.306;2023-07-20T08:33:55;2.20;;;1.08;;
18899;SDS011;9582;52.018;6.306;2023-07-20T08:36:22;1.92;;;1.08;;
18899;SDS011;9582;52.018;6.306;2023-07-20T08:38:49;1.60;;;0.95;;
18899;SDS011;9582;52.018;6.306;2023-07-20T08:41:17;1.23;;;0.65;;
18899;SDS011;9582;52.018;6.306;2023-07-20T08:43:45;1.42;;;0.70;;
18899;SDS011;9582;52.018;6.306;2023-07-20T08:46:12;1.38;;;0.80;;
18899;SDS011;9582;52.018;6.306;2023-07-20T08:48:40;1.88;;;0.82;;
18899;SDS011;9582;52.018;6.306;2023-07-20T08:51:08;0.80;;;0.70;;
18899;SDS011;9582;52.018;6.306;2023-07-20T08:53:36;1.15;;;0.80;;
18899;SDS011;9582;52.018;6.306;2023-07-20T08:56:04;1.05;;;0.85;;
18899;SDS011;9582;52.018;6.306;2023-07-20T08:58:32;0.93;;;0.63;;
18899;SDS011;9582;52.018;6.306;2023-07-20T09:01:00;0.70;;;0.70;;
18899;SDS011;9582;52.018;6.306;2023-07-20T09:03:27;0.90;;;0.70;;
18899;SDS011;9582;52.018;6.306;2023-07-20T09:05:53;0.88;;;0.75;;
18899;SDS011;9582;52.018;6.306;2023-07-20T09:08:20;1.70;;;1.23;;
18899;SDS011;9582;52.018;6.306;2023-07-20T09:10:47;0.75;;;0.57;;
18899;SDS011;9582;52.018;6.306;2023-07-20T09:13:14;1.00;;;0.93;;
18899;SDS011;9582;52.018;6.306;2023-07-20T09:15:44;1.83;;;1.13;;
18899;SDS011;9582;52.018;6.306;2023-07-20T09:18:12;1.30;;;0.90;;
18899;SDS011;9582;52.018;6.306;2023-07-20T09:20:49;1.10;;;0.80;;
18899;SDS011;9582;52.018;6.306;2023-07-20T09:23:15;0.73;;;0.70;;
18899;SDS011;9582;52.018;6.306;2023-07-20T09:25:42;2.22;;;1.00;;
18899;SDS011;9582;52.018;6.306;2023-07-20T09:28:08;0.63;;;0.60;;
18899;SDS011;9582;52.018;6.306;2023-07-20T09:30:35;0.80;;;0.70;;
18899;SDS011;9582;52.018;6.306;2023-07-20T09:33:02;2.85;;;0.70;;
18899;SDS011;9582;52.018;6.306;2023-07-20T09:35:29;4.57;;;1.20;;
18899;SDS011;9582;52.018;6.306;2023-07-20T09:37:57;1.15;;;0.80;;
18899;SDS011;9582;52.018;6.306;2023-07-20T09:40:25;2.10;;;0.80;;
18899;SDS011;9582;52.018;6.306;2023-07-20T09:42:52;0.50;;;0.50;;
18899;SDS011;9582;52.018;6.306;2023-07-20T09:45:27;1.35;;;0.70;;
18899;SDS011;9582;52.018;6.306;2023-07-20T09:47:59;2.22;;;0.60;;
18899;SDS011;9582;52.018;6.306;2023-07-20T09:50:31;1.55;;;0.88;;
18899;SDS011;9582;52.018;6.306;2023-07-20T09:52:58;1.38;;;0.70;;
18899;SDS011;9582;52.018;6.306;2023-07-20T09:55:26;1.65;;;0.80;;
18899;SDS011;9582;52.018;6.306;2023-07-20T09:57:53;1.60;;;0.70;;
18899;SDS011;9582;52.018;6.306;2023-07-20T10:00:20;0.80;;;0.80;;
18899;SDS011;9582;52.018;6.306;2023-07-20T10:02:47;1.60;;;0.88;;
18899;SDS011;9582;52.018;6.306;2023-07-20T10:05:19;0.73;;;0.70;;
18899;SDS011;9582;52.018;6.306;2023-07-20T10:07:47;3.85;;;0.80;;
18899;SDS011;9582;52.018;6.306;2023-07-20T10:10:14;1.80;;;0.80;;
18899;SDS011;9582;52.018;6.306;2023-07-20T10:12:43;1.27;;;0.80;;
18899;SDS011;9582;52.018;6.306;2023-07-20T10:15:11;0.90;;;0.90;;
18899;SDS011;9582;52.018;6.306;2023-07-20T10:17:44;1.02;;;0.70;;
18899;SDS011;9582;52.018;6.306;2023-07-20T10:20:20;1.95;;;0.73;;
18899;SDS011;9582;52.018;6.306;2023-07-20T10:22:47;1.05;;;0.70;;
18899;SDS011;9582;52.018;6.306;2023-07-20T10:25:16;0.80;;;0.80;;
18899;SDS011;9582;52.018;6.306;2023-07-20T10:27:45;0.75;;;0.75;;
18899;SDS011;9582;52.018;6.306;2023-07-20T10:30:12;0.77;;;0.77;;
18899;SDS011;9582;52.018;6.306;2023-07-20T10:32:39;1.17;;;0.77;;
18899;SDS011;9582;52.018;6.306;2023-07-20T10:35:12;2.72;;;0.80;;
18899;SDS011;9582;52.018;6.306;2023-07-20T10:37:47;2.13;;;0.88;;
18899;SDS011;9582;52.018;6.306;2023-07-20T10:40:28;1.55;;;0.80;;
18899;SDS011;9582;52.018;6.306;2023-07-20T10:42:57;2.85;;;0.80;;
18899;SDS011;9582;52.018;6.306;2023-07-20T10:45:35;0.68;;;0.68;;
18899;SDS011;9582;52.018;6.306;2023-07-20T10:48:06;2.08;;;0.70;;
18899;SDS011;9582;52.018;6.306;2023-07-20T10:50:38;1.00;;;0.90;;
18899;SDS011;9582;52.018;6.306;2023-07-20T10:53:11;1.15;;;0.85;;
18899;SDS011;9582;52.018;6.306;2023-07-20T10:55:38;0.70;;;0.70;;
18899;SDS011;9582;52.018;6.306;2023-07-20T10:58:08;1.95;;;0.77;;
18899;SDS011;9582;52.018;6.306;2023-07-20T11:00:36;1.38;;;0.70;;
18899;SDS011;9582;52.018;6.306;2023-07-20T11:03:03;1.58;;;0.90;;
18899;SDS011;9582;52.018;6.306;2023-07-20T11:05:34;1.40;;;0.70;;
18899;SDS011;9582;52.018;6.306;2023-07-20T11:08:05;1.15;;;0.88;;
18899;SDS011;9582;52.018;6.306;2023-07-20T11:10:36;0.85;;;0.80;;
18899;SDS011;9582;52.018;6.306;2023-07-20T11:13:16;1.95;;;0.80;;
18899;SDS011;9582;52.018;6.306;2023-07-20T11:15:47;0.90;;;0.82;;
18899;SDS011;9582;52.018;6.306;2023-07-20T11:18:14;0.75;;;0.70;;
18899;SDS011;9582;52.018;6.306;2023-07-20T11:20:41;1.42;;;0.63;;
18899;SDS011;9582;52.018;6.306;2023-07-20T11:23:07;1.02;;;0.65;;
18899;SDS011;9582;52.018;6.306;2023-07-20T11:25:39;1.45;;;0.60;;
18899;SDS011;9582;52.018;6.306;2023-07-20T11:28:07;1.58;;;0.82;;
18899;SDS011;9582;52.018;6.306;2023-07-20T11:30:34;1.52;;;0.60;;
18899;SDS011;9582;52.018;6.306;2023-07-20T11:33:00;0.60;;;0.60;;
18899;SDS011;9582;52.018;6.306;2023-07-20T11:35:27;0.77;;;0.77;;
18899;SDS011;9582;52.018;6.306;2023-07-20T11:37:54;1.38;;;0.70;;
18899;SDS011;9582;52.018;6.306;2023-07-20T11:40:21;1.35;;;0.80;;
18899;SDS011;9582;52.018;6.306;2023-07-20T11:42:50;1.75;;;0.82;;
18899;SDS011;9582;52.018;6.306;2023-07-20T11:45:18;0.88;;;0.88;;
18899;SDS011;9582;52.018;6.306;2023-07-20T11:47:45;0.90;;;0.80;;
18899;SDS011;9582;52.018;6.306;2023-07-20T11:50:12;1.73;;;0.70;;
18899;SDS011;9582;52.018;6.306;2023-07-20T11:52:39;1.27;;;0.75;;
18899;SDS011;9582;52.018;6.306;2023-07-20T11:55:07;1.48;;;0.90;;
18899;SDS011;9582;52.018;6.306;2023-07-20T11:57:34;6.32;;;1.00;;
18899;SDS011;9582;52.018;6.306;2023-07-20T12:00:02;15.88;;;1.55;;
18899;SDS011;9582;52.018;6.306;2023-07-20T12:02:34;3.70;;;0.93;;
18899;SDS011;9582;52.018;6.306;2023-07-20T12:05:02;1.10;;;0.70;;
18899;SDS011;9582;52.018;6.306;2023-07-20T12:07:28;6.63;;;0.85;;
18899;SDS011;9582;52.018;6.306;2023-07-20T12:10:05;6.78;;;1.02;;
18899;SDS011;9582;52.018;6.306;2023-07-20T12:12:32;0.80;;;0.80;;
18899;SDS011;9582;52.018;6.306;2023-07-20T12:15:16;1.42;;;0.80;;
18899;SDS011;9582;52.018;6.306;2023-07-20T12:17:43;1.00;;;0.80;;
18899;SDS011;9582;52.018;6.306;2023-07-20T12:20:10;0.95;;;0.80;;
18899;SDS011;9582;52.018;6.306;2023-07-20T12:22:38;1.40;;;0.70;;
18899;SDS011;9582;52.018;6.306;2023-07-20T12:25:05;1.42;;;0.90;;
18899;SDS011;9582;52.018;6.306;2023-07-20T12:27:32;2.92;;;1.05;;
18899;SDS011;9582;52.018;6.306;2023-07-20T12:29:59;2.92;;;1.23;;
18899;SDS011;9582;52.018;6.306;2023-07-20T12:32:26;0.90;;;0.90;;
18899;SDS011;9582;52.018;6.306;2023-07-20T12:34:53;2.58;;;1.10;;
18899;SDS011;9582;52.018;6.306;2023-07-20T12:37:19;1.17;;;1.00;;
18899;SDS011;9582;52.018;6.306;2023-07-20T12:39:46;1.95;;;0.90;;
18899;SDS011;9582;52.018;6.306;2023-07-20T12:42:13;6.25;;;1.00;;
18899;SDS011;9582;52.018;6.306;2023-07-20T12:44:40;1.35;;;0.80;;
18899;SDS011;9582;52.018;6.306;2023-07-20T12:47:07;1.55;;;1.00;;
18899;SDS011;9582;52.018;6.306;2023-07-20T12:49:34;2.40;;;0.90;;
18899;SDS011;9582;52.018;6.306;2023-07-20T12:52:01;2.50;;;1.20;;
18899;SDS011;9582;52.018;6.306;2023-07-20T12:54:28;1.95;;;0.90;;
18899;SDS011;9582;52.018;6.306;2023-07-20T12:56:54;1.23;;;1.00;;
18899;SDS011;9582;52.018;6.306;2023-07-20T12:59:21;2.35;;;1.30;;
18899;SDS011;9582;52.018;6.306;2023-07-20T13:01:47;1.92;;;1.13;;
18899;SDS011;9582;52.018;6.306;2023-07-20T13:04:14;1.30;;;1.20;;
18899;SDS011;9582;52.018;6.306;2023-07-20T13:06:42;1.38;;;1.27;;
18899;SDS011;9582;52.018;6.306;2023-07-20T13:09:09;2.45;;;1.20;;
18899;SDS011;9582;52.018;6.306;2023-07-20T13:11:35;5.05;;;1.48;;
18899;SDS011;9582;52.018;6.306;2023-07-20T13:14:02;2.63;;;1.27;;
18899;SDS011;9582;52.018;6.306;2023-07-20T13:16:28;1.83;;;1.30;;
18899;SDS011;9582;52.018;6.306;2023-07-20T13:18:55;1.30;;;1.20;;
18899;SDS011;9582;52.018;6.306;2023-07-20T13:21:22;2.15;;;1.35;;
18899;SDS011;9582;52.018;6.306;2023-07-20T13:23:51;2.00;;;1.50;;
18899;SDS011;9582;52.018;6.306;2023-07-20T13:26:17;2.53;;;1.80;;
18899;SDS011;9582;52.018;6.306;2023-07-20T13:28:44;1.50;;;1.40;;
18899;SDS011;9582;52.018;6.306;2023-07-20T13:31:10;3.65;;;1.67;;
18899;SDS011;9582;52.018;6.306;2023-07-20T13:33:37;1.50;;;1.40;;
18899;SDS011;9582;52.018;6.306;2023-07-20T13:36:04;2.28;;;1.20;;
18899;SDS011;9582;52.018;6.306;2023-07-20T13:38:31;1.27;;;1.17;;
18899;SDS011;9582;52.018;6.306;2023-07-20T13:40:59;1.38;;;1.27;;
18899;SDS011;9582;52.018;6.306;2023-07-20T13:43:26;2.00;;;1.20;;
18899;SDS011;9582;52.018;6.306;2023-07-20T13:45:52;2.13;;;1.45;;
18899;SDS011;9582;52.018;6.306;2023-07-20T13:48:19;1.38;;;1.20;;
18899;SDS011;9582;52.018;6.306;2023-07-20T13:50:48;1.40;;;1.30;;
18899;SDS011;9582;52.018;6.306;2023-07-20T13:53:14;2.17;;;1.48;;
18899;SDS011;9582;52.018;6.306;2023-07-20T13:55:41;1.13;;;1.02;;
18899;SDS011;9582;52.018;6.306;2023-07-20T13:58:09;1.45;;;1.25;;
18899;SDS011;9582;52.018;6.306;2023-07-20T14:00:36;3.97;;;1.20;;
18899;SDS011;9582;52.018;6.306;2023-07-20T14:03:02;3.42;;;1.48;;
18899;SDS011;9582;52.018;6.306;2023-07-20T14:05:29;2.15;;;1.42;;
18899;SDS011;9582;52.018;6.306;2023-07-20T14:07:55;2.42;;;1.42;;
18899;SDS011;9582;52.018;6.306;2023-07-20T14:10:22;1.50;;;1.30;;
18899;SDS011;9582;52.018;6.306;2023-07-20T14:12:48;1.55;;;1.45;;
18899;SDS011;9582;52.018;6.306;2023-07-20T14:15:17;1.70;;;1.60;;
18899;SDS011;9582;52.018;6.306;2023-07-20T14:17:45;6.15;;;1.60;;
18899;SDS011;9582;52.018;6.306;2023-07-20T14:20:11;2.40;;;1.30;;
18899;SDS011;9582;52.018;6.306;2023-07-20T14:22:38;2.20;;;1.40;;
18899;SDS011;9582;52.018;6.306;2023-07-20T14:25:07;1.50;;;1.40;;
18899;SDS011;9582;52.018;6.306;2023-07-20T14:27:33;1.40;;;1.30;;
18899;SDS011;9582;52.018;6.306;2023-07-20T14:30:00;2.17;;;1.20;;
18899;SDS011;9582;52.018;6.306;2023-07-20T14:32:28;1.83;;;1.40;;
18899;SDS011;9582;52.018;6.306;2023-07-20T14:34:55;1.70;;;1.10;;
18899;SDS011;9582;52.018;6.306;2023-07-20T14:37:21;1.30;;;1.20;;
18899;SDS011;9582;52.018;6.306;2023-07-20T14:39:48;3.60;;;1.48;;
18899;SDS011;9582;52.018;6.306;2023-07-20T14:42:14;2.13;;;1.13;;
18899;SDS011;9582;52.018;6.306;2023-07-20T14:44:41;1.35;;;0.98;;
18899;SDS011;9582;52.018;6.306;2023-07-20T14:47:07;2.60;;;0.90;;
18899;SDS011;9582;52.018;6.306;2023-07-20T14:49:35;1.30;;;1.15;;
18899;SDS011;9582;52.018;6.306;2023-07-20T14:52:02;2.65;;;1.20;;
18899;SDS011;9582;52.018;6.306;2023-07-20T14:54:28;2.08;;;1.10;;
18899;SDS011;9582;52.018;6.306;2023-07-20T14:56:55;1.30;;;1.17;;
18899;SDS011;9582;52.018;6.306;2023-07-20T14:59:22;1.35;;;1.10;;
18899;SDS011;9582;52.018;6.306;2023-07-20T15:01:48;1.73;;;1.30;;
18899;SDS011;9582;52.018;6.306;2023-07-20T15:04:15;8.88;;;1.92;;